sensor_id;sensor_type;location;lat;lon;timestamp;temperature;humidity
54622;DHT22;40521;53.146;6.556;2023-05-16T00:02:28;7.90;99.90
54622;DHT22;40521;53.146;6.556;2023-05-16T00:08:34;7.80;99.90
54622;DHT22;40521;53.146;6.556;2023-05-16T00:14:49;7.70;99.90
54622;DHT22;40521;53.146;6.556;2023-05-16T00:17:19;7.70;99.90
54622;DHT22;40521;53.146;6.556;2023-05-16T00:20:05;7.60;99.90
54622;DHT22;40521;53.146;6.556;2023-05-16T00:22:52;7.70;99.90
54622;DHT22;40521;53.146;6.556;2023-05-16T00:25:59;7.60;99.90
54622;DHT22;40521;53.146;6.556;2023-05-16T00:28:36;7.60;99.90
54622;DHT22;40521;53.146;6.556;2023-05-16T00:31:25;7.60;99.90
54622;DHT22;40521;53.146;6.556;2023-05-16T00:34:05;7.50;99.90
54622;DHT22;40521;53.146;6.556;2023-05-16T00:37:00;7.50;99.90
54622;DHT22;40521;53.146;6.556;2023-05-16T00:39:46;7.40;99.90
54622;DHT22;40521;53.146;6.556;2023-05-16T00:45:23;7.40;99.90
54622;DHT22;40521;53.146;6.556;2023-05-16T00:48:06;7.40;99.90
54622;DHT22;40521;53.146;6.556;2023-05-16T00:50:58;7.30;99.90
54622;DHT22;40521;53.146;6.556;2023-05-16T00:56:50;7.20;99.90
54622;DHT22;40521;53.146;6.556;2023-05-16T00:59:39;7.10;99.90
54622;DHT22;40521;53.146;6.556;2023-05-16T01:08:15;7.00;99.90
54622;DHT22;40521;53.146;6.556;2023-05-16T01:16:53;6.80;99.90
54622;DHT22;40521;53.146;6.556;2023-05-16T01:28:30;6.50;99.90
54622;DHT22;40521;53.146;6.556;2023-05-16T01:34:11;6.30;99.90
54622;DHT22;40521;53.146;6.556;2023-05-16T01:42:08;6.20;99.90
54622;DHT22;40521;53.146;6.556;2023-05-16T01:45:09;6.20;99.90
54622;DHT22;40521;53.146;6.556;2023-05-16T01:48:15;6.20;99.90
54622;DHT22;40521;53.146;6.556;2023-05-16T01:50:59;6.20;99.90
54622;DHT22;40521;53.146;6.556;2023-05-16T01:53:44;6.20;99.90
54622;DHT22;40521;53.146;6.556;2023-05-16T01:56:22;6.20;99.90
54622;DHT22;40521;53.146;6.556;2023-05-16T01:58:54;6.20;99.90
54622;DHT22;40521;53.146;6.556;2023-05-16T02:01:32;6.20;99.90
54622;DHT22;40521;53.146;6.556;2023-05-16T02:04:05;6.20;99.90
54622;DHT22;40521;53.146;6.556;2023-05-16T02:06:40;6.10;99.90
54622;DHT22;40521;53.146;6.556;2023-05-16T02:09:21;6.10;99.90
54622;DHT22;40521;53.146;6.556;2023-05-16T02:18:12;6.10;99.90
54622;DHT22;40521;53.146;6.556;2023-05-16T02:21:02;6.10;99.90
54622;DHT22;40521;53.146;6.556;2023-05-16T02:23:59;6.00;99.90
54622;DHT22;40521;53.146;6.556;2023-05-16T02:26:33;6.00;99.90
54622;DHT22;40521;53.146;6.556;2023-05-16T02:29:30;6.00;99.90
54622;DHT22;40521;53.146;6.556;2023-05-16T02:32:04;6.00;99.90
54622;DHT22;40521;53.146;6.556;2023-05-16T02:34:32;6.00;99.90
54622;DHT22;40521;53.146;6.556;2023-05-16T02:37:19;6.10;99.90
54622;DHT22;40521;53.146;6.556;2023-05-16T02:42:48;6.20;99.90
54622;DHT22;40521;53.146;6.556;2023-05-16T02:45:30;6.20;99.90
54622;DHT22;40521;53.146;6.556;2023-05-16T02:54:05;6.20;99.90
54622;DHT22;40521;53.146;6.556;2023-05-16T02:56:47;6.20;99.90
54622;DHT22;40521;53.146;6.556;2023-05-16T02:59:30;6.20;99.90
54622;DHT22;40521;53.146;6.556;2023-05-16T03:02:05;6.20;99.90
54622;DHT22;40521;53.146;6.556;2023-05-16T03:04:53;6.10;99.90
54622;DHT22;40521;53.146;6.556;2023-05-16T03:07:34;6.10;99.90
54622;DHT22;40521;53.146;6.556;2023-05-16T03:10:33;6.10;99.90
54622;DHT22;40521;53.146;6.556;2023-05-16T03:13:23;6.10;99.90
54622;DHT22;40521;53.146;6.556;2023-05-16T03:19:27;6.10;99.90
54622;DHT22;40521;53.146;6.556;2023-05-16T03:22:23;6.10;99.90
54622;DHT22;40521;53.146;6.556;2023-05-16T03:25:09;6.10;99.90
54622;DHT22;40521;53.146;6.556;2023-05-16T03:31:01;6.00;99.90
54622;DHT22;40521;53.146;6.556;2023-05-16T03:33:50;6.00;99.90
54622;DHT22;40521;53.146;6.556;2023-05-16T03:36:29;5.90;99.90
54622;DHT22;40521;53.146;6.556;2023-05-16T03:39:14;5.90;99.90
54622;DHT22;40521;53.146;6.556;2023-05-16T03:41:59;5.90;99.90
54622;DHT22;40521;53.146;6.556;2023-05-16T03:44:48;5.80;99.90
54622;DHT22;40521;53.146;6.556;2023-05-16T03:47:25;5.80;99.90
54622;DHT22;40521;53.146;6.556;2023-05-16T03:52:57;5.80;99.90
54622;DHT22;40521;53.146;6.556;2023-05-16T03:56:01;5.80;99.90
54622;DHT22;40521;53.146;6.556;2023-05-16T04:01:44;5.70;99.90
54622;DHT22;40521;53.146;6.556;2023-05-16T04:07:16;5.60;99.90
54622;DHT22;40521;53.146;6.556;2023-05-16T04:10:20;5.60;99.90
54622;DHT22;40521;53.146;6.556;2023-05-16T04:13:02;5.50;99.90
54622;DHT22;40521;53.146;6.556;2023-05-16T04:18:52;5.60;99.90
54622;DHT22;40521;53.146;6.556;2023-05-16T04:21:49;5.60;99.90
54622;DHT22;40521;53.146;6.556;2023-05-16T04:24:30;5.60;99.90
54622;DHT22;40521;53.146;6.556;2023-05-16T04:27:20;5.70;99.90
54622;DHT22;40521;53.146;6.556;2023-05-16T04:30:12;5.70;99.90
54622;DHT22;40521;53.146;6.556;2023-05-16T04:32:46;5.10;99.90
54622;DHT22;40521;53.146;6.556;2023-05-16T04:35:33;5.80;99.90
54622;DHT22;40521;53.146;6.556;2023-05-16T04:38:23;5.90;99.90
54622;DHT22;40521;53.146;6.556;2023-05-16T04:41:21;6.00;99.90
54622;DHT22;40521;53.146;6.556;2023-05-16T04:44:04;6.00;99.90
54622;DHT22;40521;53.146;6.556;2023-05-16T04:53:23;6.20;99.90
54622;DHT22;40521;53.146;6.556;2023-05-16T04:59:04;6.30;99.90
54622;DHT22;40521;53.146;6.556;2023-05-16T05:01:35;6.40;99.90
54622;DHT22;40521;53.146;6.556;2023-05-16T05:04:09;6.50;99.90
54622;DHT22;40521;53.146;6.556;2023-05-16T05:07:05;6.60;99.90
54622;DHT22;40521;53.146;6.556;2023-05-16T05:09:49;6.80;99.90
54622;DHT22;40521;53.146;6.556;2023-05-16T05:12:28;6.90;99.90
54622;DHT22;40521;53.146;6.556;2023-05-16T05:14:55;7.00;99.90
54622;DHT22;40521;53.146;6.556;2023-05-16T05:17:23;7.10;99.90
54622;DHT22;40521;53.146;6.556;2023-05-16T05:20:12;7.20;99.90
54622;DHT22;40521;53.146;6.556;2023-05-16T05:22:48;7.30;99.90
54622;DHT22;40521;53.146;6.556;2023-05-16T05:25:35;7.30;99.90
54622;DHT22;40521;53.146;6.556;2023-05-16T05:28:22;7.30;99.90
54622;DHT22;40521;53.146;6.556;2023-05-16T05:37:58;7.50;99.90
54622;DHT22;40521;53.146;6.556;2023-05-16T05:40:44;7.50;99.90
54622;DHT22;40521;53.146;6.556;2023-05-16T05:43:43;7.50;99.90
54622;DHT22;40521;53.146;6.556;2023-05-16T05:46:37;7.60;99.90
54622;DHT22;40521;53.146;6.556;2023-05-16T05:49:11;7.60;99.90
54622;DHT22;40521;53.146;6.556;2023-05-16T05:54:39;7.80;99.90
54622;DHT22;40521;53.146;6.556;2023-05-16T05:57:21;9.30;99.90
54622;DHT22;40521;53.146;6.556;2023-05-16T06:02:39;9.50;99.90
54622;DHT22;40521;53.146;6.556;2023-05-16T06:05:19;8.70;99.90
54622;DHT22;40521;53.146;6.556;2023-05-16T06:07:58;9.00;99.90
54622;DHT22;40521;53.146;6.556;2023-05-16T06:10:58;10.10;99.90
54622;DHT22;40521;53.146;6.556;2023-05-16T06:13:43;8.80;99.90
54622;DHT22;40521;53.146;6.556;2023-05-16T06:16:16;7.50;99.90
54622;DHT22;40521;53.146;6.556;2023-05-16T06:18:47;9.10;99.90
54622;DHT22;40521;53.146;6.556;2023-05-16T06:21:15;8.70;99.90
54622;DHT22;40521;53.146;6.556;2023-05-16T06:24:09;8.60;99.90
54622;DHT22;40521;53.146;6.556;2023-05-16T06:26:51;8.60;99.90
54622;DHT22;40521;53.146;6.556;2023-05-16T06:32:42;10.50;99.90
54622;DHT22;40521;53.146;6.556;2023-05-16T06:35:47;8.80;99.90
54622;DHT22;40521;53.146;6.556;2023-05-16T06:38:15;6.20;99.90
54622;DHT22;40521;53.146;6.556;2023-05-16T06:40:59;8.60;99.90
54622;DHT22;40521;53.146;6.556;2023-05-16T06:43:31;7.70;99.90
54622;DHT22;40521;53.146;6.556;2023-05-16T06:46:02;9.30;99.90
54622;DHT22;40521;53.146;6.556;2023-05-16T06:48:39;8.90;99.90
54622;DHT22;40521;53.146;6.556;2023-05-16T06:57:33;9.60;99.90
54622;DHT22;40521;53.146;6.556;2023-05-16T07:00:12;10.30;99.90
54622;DHT22;40521;53.146;6.556;2023-05-16T07:06:02;10.40;99.90
54622;DHT22;40521;53.146;6.556;2023-05-16T07:08:47;9.40;99.90
54622;DHT22;40521;53.146;6.556;2023-05-16T07:11:28;9.30;99.90
54622;DHT22;40521;53.146;6.556;2023-05-16T07:14:16;7.60;99.90
54622;DHT22;40521;53.146;6.556;2023-05-16T07:17:09;9.50;99.90
54622;DHT22;40521;53.146;6.556;2023-05-16T07:19:37;9.60;99.90
54622;DHT22;40521;53.146;6.556;2023-05-16T07:22:34;8.10;99.90
54622;DHT22;40521;53.146;6.556;2023-05-16T07:25:24;10.50;99.90
54622;DHT22;40521;53.146;6.556;2023-05-16T07:31:05;10.50;99.90
54622;DHT22;40521;53.146;6.556;2023-05-16T07:33:48;11.90;99.90
54622;DHT22;40521;53.146;6.556;2023-05-16T07:36:40;9.40;99.90
54622;DHT22;40521;53.146;6.556;2023-05-16T07:39:11;10.80;99.90
54622;DHT22;40521;53.146;6.556;2023-05-16T07:41:57;11.10;99.90
54622;DHT22;40521;53.146;6.556;2023-05-16T07:44:26;10.40;99.90
54622;DHT22;40521;53.146;6.556;2023-05-16T07:47:14;10.60;99.90
54622;DHT22;40521;53.146;6.556;2023-05-16T07:49:53;10.30;99.90
54622;DHT22;40521;53.146;6.556;2023-05-16T07:55:41;11.10;99.90
54622;DHT22;40521;53.146;6.556;2023-05-16T07:58:15;11.30;99.90
54622;DHT22;40521;53.146;6.556;2023-05-16T08:01:01;10.60;99.90
54622;DHT22;40521;53.146;6.556;2023-05-16T08:03:45;10.90;99.90
54622;DHT22;40521;53.146;6.556;2023-05-16T08:06:37;8.80;99.90
54622;DHT22;40521;53.146;6.556;2023-05-16T08:09:08;12.90;99.90
54622;DHT22;40521;53.146;6.556;2023-05-16T08:14:57;8.80;99.90
54622;DHT22;40521;53.146;6.556;2023-05-16T08:18:02;12.80;99.90
54622;DHT22;40521;53.146;6.556;2023-05-16T08:20:32;15.90;99.90
54622;DHT22;40521;53.146;6.556;2023-05-16T08:32:51;10.90;99.90
54622;DHT22;40521;53.146;6.556;2023-05-16T08:44:31;10.80;99.90
54622;DHT22;40521;53.146;6.556;2023-05-16T08:47:53;11.40;99.90
54622;DHT22;40521;53.146;6.556;2023-05-16T08:50:45;11.50;99.90
54622;DHT22;40521;53.146;6.556;2023-05-16T08:58:53;12.40;99.90
54622;DHT22;40521;53.146;6.556;2023-05-16T09:01:20;11.90;99.90
54622;DHT22;40521;53.146;6.556;2023-05-16T09:03:47;11.80;99.90
54622;DHT22;40521;53.146;6.556;2023-05-16T09:06:13;11.90;99.90
54622;DHT22;40521;53.146;6.556;2023-05-16T09:08:39;11.90;99.90
54622;DHT22;40521;53.146;6.556;2023-05-16T09:11:05;11.80;99.90
54622;DHT22;40521;53.146;6.556;2023-05-16T09:13:31;12.00;99.90
54622;DHT22;40521;53.146;6.556;2023-05-16T09:16:13;12.20;99.90
54622;DHT22;40521;53.146;6.556;2023-05-16T09:18:39;10.90;99.90
54622;DHT22;40521;53.146;6.556;2023-05-16T09:21:05;12.10;99.90
54622;DHT22;40521;53.146;6.556;2023-05-16T09:23:34;12.10;99.90
54622;DHT22;40521;53.146;6.556;2023-05-16T09:26:00;12.10;99.90
54622;DHT22;40521;53.146;6.556;2023-05-16T09:28:26;12.20;99.90
54622;DHT22;40521;53.146;6.556;2023-05-16T09:30:52;12.30;99.90
54622;DHT22;40521;53.146;6.556;2023-05-16T09:33:21;12.90;99.90
54622;DHT22;40521;53.146;6.556;2023-05-16T09:35:54;12.80;99.90
54622;DHT22;40521;53.146;6.556;2023-05-16T09:38:20;12.70;99.90
54622;DHT22;40521;53.146;6.556;2023-05-16T09:40:46;12.70;99.90
54622;DHT22;40521;53.146;6.556;2023-05-16T09:43:13;12.80;99.90
54622;DHT22;40521;53.146;6.556;2023-05-16T09:45:43;12.90;99.90
54622;DHT22;40521;53.146;6.556;2023-05-16T09:48:09;13.00;99.90
54622;DHT22;40521;53.146;6.556;2023-05-16T09:50:37;12.90;99.90
54622;DHT22;40521;53.146;6.556;2023-05-16T09:53:03;12.90;99.90
54622;DHT22;40521;53.146;6.556;2023-05-16T09:55:29;12.80;99.90
54622;DHT22;40521;53.146;6.556;2023-05-16T09:57:55;12.90;99.90
54622;DHT22;40521;53.146;6.556;2023-05-16T10:00:20;12.90;99.90
54622;DHT22;40521;53.146;6.556;2023-05-16T10:02:46;12.60;99.90
54622;DHT22;40521;53.146;6.556;2023-05-16T10:05:12;12.30;99.90
54622;DHT22;40521;53.146;6.556;2023-05-16T10:07:38;12.40;99.90
54622;DHT22;40521;53.146;6.556;2023-05-16T10:10:04;12.50;99.90
54622;DHT22;40521;53.146;6.556;2023-05-16T10:12:30;12.80;99.90
54622;DHT22;40521;53.146;6.556;2023-05-16T10:14:58;12.90;99.90
54622;DHT22;40521;53.146;6.556;2023-05-16T10:17:24;13.10;99.90
54622;DHT22;40521;53.146;6.556;2023-05-16T10:19:51;13.10;99.90
54622;DHT22;40521;53.146;6.556;2023-05-16T10:22:18;13.00;99.90
54622;DHT22;40521;53.146;6.556;2023-05-16T10:24:51;12.80;99.90
54622;DHT22;40521;53.146;6.556;2023-05-16T10:27:19;12.60;99.90
54622;DHT22;40521;53.146;6.556;2023-05-16T10:29:45;12.30;99.90
54622;DHT22;40521;53.146;6.556;2023-05-16T10:32:10;12.20;99.90
54622;DHT22;40521;53.146;6.556;2023-05-16T10:34:37;12.20;99.90
54622;DHT22;40521;53.146;6.556;2023-05-16T10:37:03;12.10;99.90
54622;DHT22;40521;53.146;6.556;2023-05-16T10:39:29;12.20;99.90
54622;DHT22;40521;53.146;6.556;2023-05-16T10:41:56;12.40;99.90
54622;DHT22;40521;53.146;6.556;2023-05-16T10:44:22;12.60;99.90
54622;DHT22;40521;53.146;6.556;2023-05-16T10:46:47;13.00;99.90
54622;DHT22;40521;53.146;6.556;2023-05-16T10:49:23;13.10;99.90
54622;DHT22;40521;53.146;6.556;2023-05-16T10:54:37;13.40;99.90
54622;DHT22;40521;53.146;6.556;2023-05-16T10:57:04;13.20;99.90
54622;DHT22;40521;53.146;6.556;2023-05-16T10:59:38;13.30;99.90
54622;DHT22;40521;53.146;6.556;2023-05-16T11:02:06;13.40;99.90
54622;DHT22;40521;53.146;6.556;2023-05-16T11:04:48;13.70;99.90
54622;DHT22;40521;53.146;6.556;2023-05-16T11:07:19;13.70;99.90
54622;DHT22;40521;53.146;6.556;2023-05-16T11:09:49;13.60;99.90
54622;DHT22;40521;53.146;6.556;2023-05-16T11:12:19;13.50;99.90
54622;DHT22;40521;53.146;6.556;2023-05-16T11:14:45;13.50;99.90
54622;DHT22;40521;53.146;6.556;2023-05-16T11:17:20;13.50;99.90
54622;DHT22;40521;53.146;6.556;2023-05-16T11:19:50;13.70;99.90
54622;DHT22;40521;53.146;6.556;2023-05-16T11:27:14;15.00;99.90
54622;DHT22;40521;53.146;6.556;2023-05-16T11:29:44;14.20;99.90
54622;DHT22;40521;53.146;6.556;2023-05-16T11:32:09;14.20;99.90
54622;DHT22;40521;53.146;6.556;2023-05-16T11:34:35;13.80;99.90
54622;DHT22;40521;53.146;6.556;2023-05-16T11:37:04;13.70;99.90
54622;DHT22;40521;53.146;6.556;2023-05-16T11:39:30;13.70;99.90
54622;DHT22;40521;53.146;6.556;2023-05-16T11:41:56;13.60;99.90
54622;DHT22;40521;53.146;6.556;2023-05-16T11:44:22;13.40;99.90
54622;DHT22;40521;53.146;6.556;2023-05-16T11:46:47;13.50;99.90
54622;DHT22;40521;53.146;6.556;2023-05-16T11:49:13;13.50;99.90
54622;DHT22;40521;53.146;6.556;2023-05-16T11:51:39;13.70;99.90
54622;DHT22;40521;53.146;6.556;2023-05-16T11:54:06;13.70;99.90
54622;DHT22;40521;53.146;6.556;2023-05-16T11:56:33;13.70;99.90
54622;DHT22;40521;53.146;6.556;2023-05-16T11:58:59;13.70;99.90
54622;DHT22;40521;53.146;6.556;2023-05-16T12:01:35;13.60;99.90
54622;DHT22;40521;53.146;6.556;2023-05-16T12:04:06;13.80;99.90
54622;DHT22;40521;53.146;6.556;2023-05-16T12:06:32;14.10;99.90
54622;DHT22;40521;53.146;6.556;2023-05-16T12:08:58;14.50;99.90
54622;DHT22;40521;53.146;6.556;2023-05-16T12:11:26;14.70;99.90
54622;DHT22;40521;53.146;6.556;2023-05-16T12:13:52;14.50;99.90
54622;DHT22;40521;53.146;6.556;2023-05-16T12:16:18;14.50;99.90
54622;DHT22;40521;53.146;6.556;2023-05-16T12:18:43;14.60;99.90
54622;DHT22;40521;53.146;6.556;2023-05-16T12:21:09;14.80;99.90
54622;DHT22;40521;53.146;6.556;2023-05-16T12:23:35;15.30;99.90
54622;DHT22;40521;53.146;6.556;2023-05-16T12:26:01;14.80;99.90
54622;DHT22;40521;53.146;6.556;2023-05-16T12:28:31;14.60;99.90
54622;DHT22;40521;53.146;6.556;2023-05-16T12:31:02;14.60;99.90
54622;DHT22;40521;53.146;6.556;2023-05-16T12:33:27;14.80;99.90
54622;DHT22;40521;53.146;6.556;2023-05-16T12:35:53;14.90;99.90
54622;DHT22;40521;53.146;6.556;2023-05-16T12:38:19;15.20;99.90
54622;DHT22;40521;53.146;6.556;2023-05-16T12:40:45;14.90;99.90
54622;DHT22;40521;53.146;6.556;2023-05-16T12:43:21;14.80;99.90
54622;DHT22;40521;53.146;6.556;2023-05-16T12:45:54;14.70;99.90
54622;DHT22;40521;53.146;6.556;2023-05-16T12:48:21;14.40;99.90
54622;DHT22;40521;53.146;6.556;2023-05-16T12:50:46;14.20;99.90
54622;DHT22;40521;53.146;6.556;2023-05-16T12:53:14;14.10;99.90
54622;DHT22;40521;53.146;6.556;2023-05-16T12:55:40;14.10;99.90
54622;DHT22;40521;53.146;6.556;2023-05-16T12:58:06;14.00;99.90
54622;DHT22;40521;53.146;6.556;2023-05-16T13:00:32;13.70;99.90
54622;DHT22;40521;53.146;6.556;2023-05-16T13:02:57;13.40;99.90
54622;DHT22;40521;53.146;6.556;2023-05-16T13:05:23;13.40;99.90
54622;DHT22;40521;53.146;6.556;2023-05-16T13:07:49;13.20;99.90
54622;DHT22;40521;53.146;6.556;2023-05-16T13:10:16;14.40;99.90
54622;DHT22;40521;53.146;6.556;2023-05-16T13:12:42;12.80;99.90
54622;DHT22;40521;53.146;6.556;2023-05-16T13:15:08;12.70;99.90
54622;DHT22;40521;53.146;6.556;2023-05-16T13:17:35;12.60;99.90
54622;DHT22;40521;53.146;6.556;2023-05-16T13:20:01;12.60;99.90
54622;DHT22;40521;53.146;6.556;2023-05-16T13:22:29;12.60;99.90
54622;DHT22;40521;53.146;6.556;2023-05-16T13:24:55;12.80;99.90
54622;DHT22;40521;53.146;6.556;2023-05-16T13:27:20;12.80;99.90
54622;DHT22;40521;53.146;6.556;2023-05-16T13:29:46;13.70;99.90
54622;DHT22;40521;53.146;6.556;2023-05-16T13:32:12;13.90;99.90
54622;DHT22;40521;53.146;6.556;2023-05-16T13:34:37;13.70;99.90
54622;DHT22;40521;53.146;6.556;2023-05-16T13:37:03;13.50;99.90
54622;DHT22;40521;53.146;6.556;2023-05-16T13:39:29;13.30;99.90
54622;DHT22;40521;53.146;6.556;2023-05-16T13:41:55;13.20;99.90
54622;DHT22;40521;53.146;6.556;2023-05-16T13:44:20;12.90;99.90
54622;DHT22;40521;53.146;6.556;2023-05-16T13:46:46;12.80;99.90
54622;DHT22;40521;53.146;6.556;2023-05-16T13:49:12;12.80;99.90
54622;DHT22;40521;53.146;6.556;2023-05-16T13:51:38;13.10;99.90
54622;DHT22;40521;53.146;6.556;2023-05-16T13:54:03;12.60;99.90
54622;DHT22;40521;53.146;6.556;2023-05-16T13:56:29;10.20;99.90
54622;DHT22;40521;53.146;6.556;2023-05-16T13:58:55;12.60;99.90
54622;DHT22;40521;53.146;6.556;2023-05-16T14:01:21;12.50;99.90
54622;DHT22;40521;53.146;6.556;2023-05-16T14:03:47;12.40;99.90
54622;DHT22;40521;53.146;6.556;2023-05-16T14:06:13;12.60;99.90
54622;DHT22;40521;53.146;6.556;2023-05-16T14:08:38;11.00;99.90
54622;DHT22;40521;53.146;6.556;2023-05-16T14:11:04;12.40;99.90
54622;DHT22;40521;53.146;6.556;2023-05-16T14:13:30;12.60;99.90
54622;DHT22;40521;53.146;6.556;2023-05-16T14:15:56;12.70;99.90
54622;DHT22;40521;53.146;6.556;2023-05-16T14:18:22;12.20;99.90
54622;DHT22;40521;53.146;6.556;2023-05-16T14:20:48;13.30;99.90
54622;DHT22;40521;53.146;6.556;2023-05-16T14:23:15;13.20;99.90
54622;DHT22;40521;53.146;6.556;2023-05-16T14:25:41;13.30;99.90
54622;DHT22;40521;53.146;6.556;2023-05-16T14:28:07;13.30;99.90
54622;DHT22;40521;53.146;6.556;2023-05-16T14:30:32;13.00;99.90
54622;DHT22;40521;53.146;6.556;2023-05-16T14:32:58;13.00;99.90
54622;DHT22;40521;53.146;6.556;2023-05-16T14:35:24;12.90;99.90
54622;DHT22;40521;53.146;6.556;2023-05-16T14:37:50;13.00;99.90
54622;DHT22;40521;53.146;6.556;2023-05-16T14:40:16;12.90;99.90
54622;DHT22;40521;53.146;6.556;2023-05-16T14:42:41;12.70;99.90
54622;DHT22;40521;53.146;6.556;2023-05-16T14:45:07;13.20;99.90
54622;DHT22;40521;53.146;6.556;2023-05-16T14:47:33;13.00;99.90
54622;DHT22;40521;53.146;6.556;2023-05-16T14:49:58;13.20;99.90
54622;DHT22;40521;53.146;6.556;2023-05-16T14:52:28;13.20;99.90
54622;DHT22;40521;53.146;6.556;2023-05-16T14:54:54;13.70;99.90
54622;DHT22;40521;53.146;6.556;2023-05-16T14:57:19;13.50;99.90
54622;DHT22;40521;53.146;6.556;2023-05-16T14:59:45;13.40;99.90
54622;DHT22;40521;53.146;6.556;2023-05-16T15:02:25;13.30;99.90
54622;DHT22;40521;53.146;6.556;2023-05-16T15:04:51;15.40;99.90
54622;DHT22;40521;53.146;6.556;2023-05-16T15:07:18;13.10;99.90
54622;DHT22;40521;53.146;6.556;2023-05-16T15:09:45;13.30;99.90
54622;DHT22;40521;53.146;6.556;2023-05-16T15:12:10;12.80;99.90
54622;DHT22;40521;53.146;6.556;2023-05-16T15:14:36;12.70;99.90
54622;DHT22;40521;53.146;6.556;2023-05-16T15:17:02;12.90;99.90
54622;DHT22;40521;53.146;6.556;2023-05-16T15:19:28;13.00;99.90
54622;DHT22;40521;53.146;6.556;2023-05-16T15:21:54;12.90;99.90
54622;DHT22;40521;53.146;6.556;2023-05-16T15:24:19;10.50;99.90
54622;DHT22;40521;53.146;6.556;2023-05-16T15:26:45;13.10;99.90
54622;DHT22;40521;53.146;6.556;2023-05-16T15:29:11;13.00;99.90
54622;DHT22;40521;53.146;6.556;2023-05-16T15:31:37;13.00;99.90
54622;DHT22;40521;53.146;6.556;2023-05-16T15:34:02;13.00;99.90
54622;DHT22;40521;53.146;6.556;2023-05-16T15:36:30;13.00;99.90
54622;DHT22;40521;53.146;6.556;2023-05-16T15:38:56;13.10;99.90
54622;DHT22;40521;53.146;6.556;2023-05-16T15:41:22;13.10;99.90
54622;DHT22;40521;53.146;6.556;2023-05-16T15:43:51;13.40;99.90
54622;DHT22;40521;53.146;6.556;2023-05-16T15:46:16;13.60;99.90
54622;DHT22;40521;53.146;6.556;2023-05-16T15:48:45;14.50;99.90
54622;DHT22;40521;53.146;6.556;2023-05-16T15:51:11;12.90;99.90
54622;DHT22;40521;53.146;6.556;2023-05-16T15:53:37;12.80;99.90
54622;DHT22;40521;53.146;6.556;2023-05-16T15:56:03;13.20;99.90
54622;DHT22;40521;53.146;6.556;2023-05-16T15:58:28;12.40;99.90
54622;DHT22;40521;53.146;6.556;2023-05-16T16:00:54;12.20;99.90
54622;DHT22;40521;53.146;6.556;2023-05-16T16:03:20;12.70;99.90
54622;DHT22;40521;53.146;6.556;2023-05-16T16:05:46;12.10;99.90
54622;DHT22;40521;53.146;6.556;2023-05-16T16:08:16;12.10;99.90
54622;DHT22;40521;53.146;6.556;2023-05-16T16:10:42;12.30;99.90
54622;DHT22;40521;53.146;6.556;2023-05-16T16:13:08;12.20;99.90
54622;DHT22;40521;53.146;6.556;2023-05-16T16:15:34;12.20;99.90
54622;DHT22;40521;53.146;6.556;2023-05-16T16:17:59;12.30;99.90
54622;DHT22;40521;53.146;6.556;2023-05-16T16:20:25;12.30;99.90
54622;DHT22;40521;53.146;6.556;2023-05-16T16:22:51;12.40;99.90
54622;DHT22;40521;53.146;6.556;2023-05-16T16:25:17;12.40;99.90
54622;DHT22;40521;53.146;6.556;2023-05-16T16:27:43;12.40;99.90
54622;DHT22;40521;53.146;6.556;2023-05-16T16:30:09;12.40;99.90
54622;DHT22;40521;53.146;6.556;2023-05-16T16:32:35;12.30;99.90
54622;DHT22;40521;53.146;6.556;2023-05-16T16:35:01;12.30;99.90
54622;DHT22;40521;53.146;6.556;2023-05-16T16:37:33;12.20;99.90
54622;DHT22;40521;53.146;6.556;2023-05-16T16:39:59;12.30;99.90
54622;DHT22;40521;53.146;6.556;2023-05-16T16:42:24;12.30;99.90
54622;DHT22;40521;53.146;6.556;2023-05-16T16:44:51;12.30;99.90
54622;DHT22;40521;53.146;6.556;2023-05-16T16:47:17;12.30;99.90
54622;DHT22;40521;53.146;6.556;2023-05-16T16:49:42;12.50;99.90
54622;DHT22;40521;53.146;6.556;2023-05-16T16:52:09;12.70;99.90
54622;DHT22;40521;53.146;6.556;2023-05-16T16:54:35;12.90;99.90
54622;DHT22;40521;53.146;6.556;2023-05-16T16:57:01;12.80;99.90
54622;DHT22;40521;53.146;6.556;2023-05-16T16:59:27;12.80;99.90
54622;DHT22;40521;53.146;6.556;2023-05-16T17:01:52;12.90;99.90
54622;DHT22;40521;53.146;6.556;2023-05-16T17:04:18;13.00;99.90
54622;DHT22;40521;53.146;6.556;2023-05-16T17:06:43;13.10;99.90
54622;DHT22;40521;53.146;6.556;2023-05-16T17:09:09;13.10;99.90
54622;DHT22;40521;53.146;6.556;2023-05-16T17:11:41;13.10;99.90
54622;DHT22;40521;53.146;6.556;2023-05-16T17:14:09;13.00;99.90
54622;DHT22;40521;53.146;6.556;2023-05-16T17:16:38;12.90;99.90
54622;DHT22;40521;53.146;6.556;2023-05-16T17:19:05;12.80;99.90
54622;DHT22;40521;53.146;6.556;2023-05-16T17:21:31;12.70;99.90
54622;DHT22;40521;53.146;6.556;2023-05-16T17:23:59;12.70;99.90
54622;DHT22;40521;53.146;6.556;2023-05-16T17:26:24;12.60;99.90
54622;DHT22;40521;53.146;6.556;2023-05-16T17:28:51;12.60;99.90
54622;DHT22;40521;53.146;6.556;2023-05-16T17:31:17;13.10;99.90
54622;DHT22;40521;53.146;6.556;2023-05-16T17:33:42;13.40;99.90
54622;DHT22;40521;53.146;6.556;2023-05-16T17:36:08;13.30;99.90
54622;DHT22;40521;53.146;6.556;2023-05-16T17:38:35;13.10;99.90
54622;DHT22;40521;53.146;6.556;2023-05-16T17:41:01;12.90;99.90
54622;DHT22;40521;53.146;6.556;2023-05-16T17:43:28;12.80;99.90
54622;DHT22;40521;53.146;6.556;2023-05-16T17:45:53;12.60;99.90
54622;DHT22;40521;53.146;6.556;2023-05-16T17:48:19;12.40;99.90
54622;DHT22;40521;53.146;6.556;2023-05-16T17:50:45;12.40;99.90
54622;DHT22;40521;53.146;6.556;2023-05-16T17:53:10;12.40;99.90
54622;DHT22;40521;53.146;6.556;2023-05-16T17:55:36;12.50;99.90
54622;DHT22;40521;53.146;6.556;2023-05-16T17:58:01;12.50;99.90
54622;DHT22;40521;53.146;6.556;2023-05-16T18:00:27;12.40;99.90
54622;DHT22;40521;53.146;6.556;2023-05-16T18:02:54;12.30;99.90
54622;DHT22;40521;53.146;6.556;2023-05-16T18:05:19;12.30;99.90
54622;DHT22;40521;53.146;6.556;2023-05-16T18:07:45;12.20;99.90
54622;DHT22;40521;53.146;6.556;2023-05-16T18:10:11;12.10;99.90
54622;DHT22;40521;53.146;6.556;2023-05-16T18:12:37;12.00;99.90
54622;DHT22;40521;53.146;6.556;2023-05-16T18:15:04;11.90;99.90
54622;DHT22;40521;53.146;6.556;2023-05-16T18:17:30;11.90;99.90
54622;DHT22;40521;53.146;6.556;2023-05-16T18:19:56;11.90;99.90
54622;DHT22;40521;53.146;6.556;2023-05-16T18:22:22;11.30;99.90
54622;DHT22;40521;53.146;6.556;2023-05-16T18:24:48;11.80;99.90
54622;DHT22;40521;53.146;6.556;2023-05-16T18:27:14;11.70;99.90
54622;DHT22;40521;53.146;6.556;2023-05-16T18:29:40;11.70;99.90
54622;DHT22;40521;53.146;6.556;2023-05-16T18:32:06;11.60;99.90
54622;DHT22;40521;53.146;6.556;2023-05-16T18:34:32;11.40;99.90
54622;DHT22;40521;53.146;6.556;2023-05-16T18:36:58;11.60;99.90
54622;DHT22;40521;53.146;6.556;2023-05-16T18:39:24;11.50;99.90
54622;DHT22;40521;53.146;6.556;2023-05-16T18:41:49;11.50;99.90
54622;DHT22;40521;53.146;6.556;2023-05-16T18:44:15;11.50;99.90